Eagle Nest, New Mexico
Current Conditions -  °F | °C
As of 9:55 AM on Thursday 27 Nov 2014 (Local Time) from KAXX Reporting Station
Clear Clear  
Wind Chill: 21°   Ceiling: Unl
Heat Index: 21°   Visibility: 10mi
Dew Point: 18°   Wind: 0mph
Humidity: 90%   Direction: NA
Pressure: 30.53"   Gusts: NA
Location:  36.55°N, 105.26°W
Report Text: KAXX 271655Z AUTO 00000KT 10SM CLR M06/M08 A3053 RMK AO2 T10631077
Loading
Personal Weather Stations






























Interactive Weather Map New forecast layout! Learn more

10-Day Weather Forecast

Advertisements
Track Severe Weather on mobile